Time;durP1;ratioP1;P1;durP2;ratioP2;P2;SDS_P1;SDS_P2;PMS_P1;PMS_P2;Temp;Humidity;BMP_temperature;BMP_pressure;BME280_temperature;BME280_humidity;BME280_pressure;Samples;Min_cycle;Max_cycle;Signal;HPM_P1;HPM_P2
2022/08/12 00:44:42;;;;;;;11.90;11.00;;;21.90;78.80;;;;;;5030267;28;20421;-71
2022/08/12 00:47:08;;;;;;;11.40;10.70;;;21.80;79.80;;;;;;5028974;28;20799;-71
2022/08/12 00:49:35;;;;;;;12.47;11.43;;;21.80;80.10;;;;;;5018142;28;20448;-71
2022/08/12 00:52:10;;;;;;;13.60;11.20;;;21.70;80.70;;;;;;5032696;28;20449;-71
2022/08/12 00:54:36;;;;;;;12.03;11.13;;;21.70;80.00;;;;;;5028048;28;20437;-71
2022/08/12 00:57:09;;;;;;;12.73;11.73;;;21.70;80.80;;;;;;5033951;28;20427;-71
2022/08/12 00:59:36;;;;;;;11.30;10.50;;;21.60;81.00;;;;;;5030855;28;20166;-72
2022/08/12 01:02:04;;;;;;;11.23;10.53;;;21.60;81.50;;;;;;5031529;28;20496;-71
2022/08/12 01:12:45;;;;;;;11.83;11.03;;;21.50;82.40;;;;;;5019882;28;20429;-71
2022/08/12 01:15:12;;;;;;;11.87;11.07;;;21.50;82.40;;;;;;5020170;28;20491;-71
2022/08/12 01:17:43;;;;;;;11.83;10.83;;;21.40;82.50;;;;;;5032807;28;21252;-71
2022/08/12 01:20:17;;;;;;;11.77;10.97;;;21.40;82.90;;;;;;5035615;28;20421;-71
2022/08/12 01:23:21;;;;;;;12.13;11.10;;;21.40;82.90;;;;;;5035225;28;20401;-72
2022/08/12 01:25:50;;;;;;;11.30;10.50;;;21.40;83.70;;;;;;5035968;28;20401;-71
2022/08/12 01:28:18;;;;;;;11.30;10.50;;;21.50;83.80;;;;;;5036084;28;20417;-71
2022/08/12 01:30:48;;;;;;;12.03;11.03;;;21.40;84.00;;;;;;5035869;28;20416;-71
2022/08/12 01:33:19;;;;;;;12.00;10.83;;;21.40;83.70;;;;;;5033287;28;20436;-71
2022/08/12 01:35:53;;;;;;;11.53;10.53;;;21.40;84.50;;;;;;5036365;28;20736;-71
2022/08/12 01:38:21;;;;;;;11.87;10.90;;;21.30;84.70;;;;;;5030383;28;20432;-73
2022/08/12 01:40:50;;;;;;;12.00;11.00;;;21.30;85.20;;;;;;5034668;28;20815;-71
2022/08/12 01:43:23;;;;;;;11.60;10.70;;;21.30;85.00;;;;;;5035975;28;20496;-71
2022/08/12 01:46:04;;;;;;;12.20;11.30;;;21.30;85.40;;;;;;5035707;28;20757;-71
2022/08/12 01:48:31;;;;;;;13.13;12.00;;;21.20;85.90;;;;;;5034039;28;20412;-71
2022/08/12 01:51:08;;;;;;;12.67;11.67;;;21.20;86.60;;;;;;5034189;28;20825;-71
2022/08/12 01:54:06;;;;;;;11.90;10.90;;;21.20;86.70;;;;;;5033460;28;20407;-71
2022/08/12 01:57:02;;;;;;;12.37;11.30;;;21.20;87.20;;;;;;5018922;28;20429;-71
2022/08/12 01:59:48;;;;;;;11.67;10.67;;;21.10;87.90;;;;;;5033403;28;20437;-71
2022/08/12 02:02:18;;;;;;;12.73;11.63;;;21.10;87.10;;;;;;5035709;28;20786;-71
2022/08/12 02:11:18;;;;;;;13.47;12.23;;;20.90;88.80;;;;;;5034869;28;20685;-71
2022/08/12 02:14:24;;;;;;;12.33;11.47;;;20.90;89.00;;;;;;5026289;28;20932;-71
2022/08/12 02:17:06;;;;;;;11.20;10.40;;;20.80;89.70;;;;;;5035039;28;20409;-71
2022/08/12 02:20:06;;;;;;;11.40;10.53;;;20.80;89.10;;;;;;5034557;28;20416;-71
2022/08/12 02:22:39;;;;;;;11.93;11.10;;;20.70;90.00;;;;;;5032693;28;20476;-71
2022/08/12 02:25:25;;;;;;;12.53;11.53;;;20.70;90.20;;;;;;5034497;28;20861;-71
2022/08/12 02:27:54;;;;;;;12.20;11.37;;;20.70;90.30;;;;;;5033409;28;20468;-71
2022/08/12 02:30:24;;;;;;;12.83;11.90;;;20.70;90.30;;;;;;5035173;28;20397;-71
2022/08/12 02:32:52;;;;;;;11.67;10.87;;;20.70;90.50;;;;;;5034691;28;20888;-71
2022/08/12 02:35:24;;;;;;;12.23;11.13;;;20.60;90.30;;;;;;5033804;28;20417;-71
2022/08/12 02:37:54;;;;;;;12.40;11.50;;;20.60;90.40;;;;;;5033554;28;20424;-71
2022/08/12 02:40:22;;;;;;;10.97;10.17;;;20.60;90.40;;;;;;5034842;28;20484;-71
2022/08/12 02:42:54;;;;;;;12.50;11.60;;;20.60;90.40;;;;;;5031412;28;20421;-71
2022/08/12 02:45:32;;;;;;;13.00;12.00;;;20.60;90.40;;;;;;5035093;28;20412;-71
2022/08/12 02:48:05;;;;;;;12.80;11.80;;;20.50;90.40;;;;;;5034584;28;20907;-71
2022/08/12 02:50:35;;;;;;;13.20;12.20;;;20.50;90.50;;;;;;5034192;28;20460;-71
2022/08/12 02:53:03;;;;;;;12.97;12.07;;;20.50;91.10;;;;;;5019966;28;20437;-71
2022/08/12 02:55:32;;;;;;;12.90;12.00;;;20.50;91.00;;;;;;5024129;28;20795;-71
2022/08/12 02:57:59;;;;;;;12.70;11.67;;;20.40;91.10;;;;;;5032831;28;20425;-71
2022/08/12 03:00:26;;;;;;;12.67;11.70;;;20.40;91.40;;;;;;5030800;28;20512;-72
2022/08/12 03:02:55;;;;;;;11.73;10.83;;;20.40;91.50;;;;;;5033078;28;20410;-73
2022/08/12 03:05:24;;;;;;;13.07;12.00;;;20.40;91.70;;;;;;5032948;28;20909;-71
2022/08/12 03:07:55;;;;;;;12.23;11.23;;;20.40;91.80;;;;;;5034582;28;20413;-71
2022/08/12 03:10:23;;;;;;;12.83;11.77;;;20.30;91.60;;;;;;5033897;28;20439;-71
2022/08/12 03:12:53;;;;;;;12.83;11.60;;;20.30;91.70;;;;;;5027268;28;20427;-71
2022/08/12 03:15:22;;;;;;;12.80;11.57;;;20.30;91.90;;;;;;5032040;28;20794;-71
2022/08/12 03:17:50;;;;;;;12.50;11.50;;;20.30;92.00;;;;;;5031772;28;20904;-71
2022/08/12 03:20:21;;;;;;;13.20;12.20;;;20.30;91.90;;;;;;5033596;28;20924;-71
2022/08/12 03:22:51;;;;;;;12.57;11.67;;;20.20;92.00;;;;;;5033228;28;20781;-71
2022/08/12 03:25:25;;;;;;;12.70;11.50;;;20.20;92.10;;;;;;5033948;28;20971;-71
2022/08/12 03:27:56;;;;;;;12.60;11.50;;;20.30;92.20;;;;;;5033779;28;20401;-71
2022/08/12 03:30:27;;;;;;;12.90;12.00;;;20.20;92.10;;;;;;5032810;28;20401;-71
2022/08/12 03:32:54;;;;;;;12.80;11.90;;;20.20;92.20;;;;;;5029621;28;20479;-71
2022/08/12 03:35:26;;;;;;;14.50;13.30;;;20.20;92.10;;;;;;5034237;28;20803;-71
2022/08/12 03:38:00;;;;;;;11.73;10.90;;;20.20;92.20;;;;;;5032755;28;20421;-71
2022/08/12 04:02:40;;;;;;;15.40;14.20;;;20.10;93.10;;;;;;5032034;28;20437;-71
2022/08/12 04:05:11;;;;;;;14.83;13.60;;;20.00;93.10;;;;;;5031425;28;20440;-71
2022/08/12 04:07:39;;;;;;;12.53;11.53;;;20.00;93.20;;;;;;5031869;28;20440;-71
2022/08/12 04:10:06;;;;;;;13.77;12.77;;;20.00;93.30;;;;;;5032872;28;20420;-71
2022/08/12 04:15:21;;;;;;;13.77;12.70;;;20.00;93.30;;;;;;5032732;28;20405;-71
2022/08/12 04:17:48;;;;;;;14.50;13.60;;;19.90;93.60;;;;;;5030838;28;21312;-75
2022/08/12 04:20:18;;;;;;;12.03;11.13;;;19.90;93.70;;;;;;5030671;28;20437;-71
2022/08/12 04:22:44;;;;;;;15.80;14.50;;;19.80;93.90;;;;;;5032072;28;20447;-71
2022/08/12 04:25:11;;;;;;;15.60;14.17;;;19.80;93.80;;;;;;5032651;28;20412;-71
2022/08/12 04:27:38;;;;;;;14.27;13.00;;;19.80;94.10;;;;;;5029346;28;20802;-71
2022/08/12 04:30:06;;;;;;;14.40;13.10;;;19.80;94.00;;;;;;5030994;28;20496;-71
2022/08/12 04:32:34;;;;;;;13.57;12.57;;;19.80;94.10;;;;;;5030895;28;20437;-75
2022/08/12 04:35:00;;;;;;;14.17;13.17;;;19.80;93.80;;;;;;5031330;28;20788;-71
2022/08/12 04:37:26;;;;;;;13.60;12.30;;;19.80;94.00;;;;;;5032139;28;20428;-71
2022/08/12 04:39:53;;;;;;;15.40;14.10;;;19.80;94.00;;;;;;5028144;28;20425;-71
2022/08/12 04:42:19;;;;;;;14.20;12.90;;;19.80;94.20;;;;;;5031029;28;20856;-71
2022/08/12 04:44:45;;;;;;;15.70;14.40;;;19.80;94.30;;;;;;5031643;28;20526;-71
2022/08/12 04:47:15;;;;;;;14.67;13.57;;;19.80;94.40;;;;;;5027036;28;20429;-71
2022/08/12 04:49:44;;;;;;;15.20;14.00;;;19.80;94.40;;;;;;5029540;28;20492;-72
2022/08/12 04:52:10;;;;;;;14.13;12.93;;;19.80;94.40;;;;;;5031895;28;20502;-71
2022/08/12 04:54:36;;;;;;;15.40;14.07;;;19.80;94.20;;;;;;5029200;28;20441;-72
2022/08/12 04:57:04;;;;;;;14.03;12.93;;;19.80;94.60;;;;;;5032418;28;20412;-71
2022/08/12 04:59:31;;;;;;;15.30;13.90;;;19.80;94.60;;;;;;5032198;28;20523;-74
2022/08/12 05:01:57;;;;;;;16.37;14.90;;;19.80;94.30;;;;;;5027946;28;20457;-71
2022/08/12 05:04:26;;;;;;;15.40;14.00;;;19.80;94.20;;;;;;5031303;28;20432;-71
2022/08/12 05:06:52;;;;;;;15.27;14.13;;;19.90;94.10;;;;;;5030086;28;21131;-71
2022/08/12 05:09:18;;;;;;;16.90;15.30;;;19.90;94.30;;;;;;5029969;28;20413;-71
2022/08/12 05:11:48;;;;;;;17.10;15.60;;;19.90;94.20;;;;;;5028038;28;20199;-71
2022/08/12 05:14:15;;;;;;;17.70;16.10;;;19.90;93.90;;;;;;5032068;28;20397;-71
2022/08/12 05:16:40;;;;;;;17.10;15.70;;;19.90;93.80;;;;;;5031138;28;20425;-72
2022/08/12 05:19:06;;;;;;;17.57;16.17;;;19.90;93.60;;;;;;5031881;28;20424;-71
2022/08/12 05:21:32;;;;;;;17.63;16.00;;;20.00;93.60;;;;;;5031870;28;20245;-75
2022/08/12 05:23:59;;;;;;;17.20;15.40;;;20.10;93.30;;;;;;5031450;28;20233;-71
2022/08/12 05:26:26;;;;;;;17.33;15.87;;;20.10;93.30;;;;;;5031595;28;20405;-71
2022/08/12 05:28:53;;;;;;;16.93;15.43;;;20.10;93.10;;;;;;5028714;28;20439;-71
2022/08/12 05:31:19;;;;;;;18.33;16.63;;;20.10;93.10;;;;;;5003665;28;20441;-69
2022/08/12 05:33:46;;;;;;;19.10;17.67;;;20.10;93.10;;;;;;5029244;28;20516;-72
2022/08/12 05:36:14;;;;;;;16.67;15.13;;;20.30;95.40;;;;;;5028778;28;20791;-72
2022/08/12 05:38:57;;;;;;;18.03;16.53;;;20.60;95.20;;;;;;5026766;28;20488;-73
2022/08/12 05:41:34;;;;;;;17.97;16.27;;;20.80;93.80;;;;;;5029595;28;20499;-72
2022/08/12 05:44:12;;;;;;;16.20;14.90;;;21.00;93.30;;;;;;5030287;28;20787;-73
2022/08/12 05:46:38;;;;;;;15.20;13.90;;;21.30;93.20;;;;;;5028998;28;20804;-73
2022/08/12 05:49:05;;;;;;;15.77;14.10;;;21.50;92.40;;;;;;5031527;28;20440;-72
2022/08/12 05:51:36;;;;;;;18.73;17.03;;;21.70;91.70;;;;;;5031979;28;20460;-72
2022/08/12 05:54:03;;;;;;;18.53;16.87;;;21.90;91.20;;;;;;5031674;28;20417;-72
2022/08/12 05:56:34;;;;;;;18.20;16.70;;;22.00;90.80;;;;;;5031970;28;20420;-72
2022/08/12 05:59:02;;;;;;;15.93;14.60;;;22.20;90.60;;;;;;5032277;28;20409;-72
2022/08/12 06:01:29;;;;;;;14.40;13.13;;;22.30;90.30;;;;;;5023647;28;20833;-73
2022/08/12 06:03:55;;;;;;;16.63;15.33;;;22.40;90.00;;;;;;5014903;28;20461;-73
2022/08/12 06:06:22;;;;;;;13.93;12.73;;;22.50;89.80;;;;;;5015697;28;20418;-73
2022/08/12 06:08:52;;;;;;;14.53;13.53;;;22.60;88.70;;;;;;5015279;28;20890;-73
2022/08/12 06:11:25;;;;;;;15.83;14.33;;;22.60;88.00;;;;;;5023309;28;20464;-72
2022/08/12 06:13:54;;;;;;;13.90;12.60;;;22.60;87.20;;;;;;5031208;28;20408;-74
2022/08/12 06:16:23;;;;;;;15.10;13.70;;;22.70;87.90;;;;;;5014533;28;20402;-73
2022/08/12 06:18:49;;;;;;;14.90;13.80;;;22.80;87.40;;;;;;5029494;28;20460;-73
2022/08/12 06:21:20;;;;;;;15.43;14.23;;;22.80;87.10;;;;;;5035204;28;20959;-73
2022/08/12 06:23:46;;;;;;;14.73;13.53;;;22.90;86.40;;;;;;5028825;28;20182;-73
2022/08/12 06:26:15;;;;;;;14.30;13.10;;;22.90;85.10;;;;;;5021214;28;20437;-72
2022/08/12 06:28:42;;;;;;;14.40;13.27;;;22.90;85.60;;;;;;5019746;28;20444;-75
2022/08/12 06:31:12;;;;;;;15.50;14.30;;;22.90;85.70;;;;;;5028261;28;20421;-72
2022/08/12 06:33:42;;;;;;;16.40;15.07;;;23.00;86.00;;;;;;5023140;28;20417;-73
2022/08/12 06:36:08;;;;;;;15.30;13.90;;;23.10;84.90;;;;;;5025324;28;20812;-72
2022/08/12 06:38:33;;;;;;;16.63;15.43;;;23.10;85.50;;;;;;5026907;28;20425;-72
2022/08/12 06:43:45;;;;;;;16.17;14.90;;;23.20;85.60;;;;;;5017806;28;20187;-72
2022/08/12 06:46:12;;;;;;;14.80;13.70;;;23.20;84.70;;;;;;5052152;28;20444;-68
2022/08/12 06:48:41;;;;;;;13.40;12.10;;;23.30;84.40;;;;;;5046267;28;20424;-69
2022/08/12 06:51:08;;;;;;;15.60;13.73;;;23.20;83.60;;;;;;5031583;28;20567;-68
2022/08/12 06:53:36;;;;;;;14.53;11.73;;;23.10;83.40;;;;;;5042521;28;20474;-71
2022/08/12 06:56:03;;;;;;;14.97;13.67;;;23.10;83.20;;;;;;5033022;28;20460;-68
2022/08/12 06:58:30;;;;;;;13.43;12.10;;;23.00;83.40;;;;;;5034430;28;20432;-68
2022/08/12 07:00:57;;;;;;;12.70;11.60;;;23.00;83.60;;;;;;5033373;28;20925;-68
2022/08/12 07:03:28;;;;;;;15.50;14.30;;;23.00;85.80;;;;;;5034059;28;20813;-69
2022/08/12 07:06:00;;;;;;;14.87;12.27;;;22.90;85.30;;;;;;5033925;28;20393;-68
2022/08/12 07:08:33;;;;;;;14.60;13.40;;;22.90;84.70;;;;;;5034448;28;20815;-68
2022/08/12 07:11:04;;;;;;;14.10;12.60;;;22.90;85.40;;;;;;5033577;28;20431;-71
2022/08/12 07:13:46;;;;;;;13.20;12.20;;;22.90;84.70;;;;;;5033195;28;20436;-68
2022/08/12 07:16:14;;;;;;;12.43;11.63;;;23.00;85.10;;;;;;5016467;28;20413;-68
2022/08/12 07:18:41;;;;;;;12.43;11.43;;;23.00;84.70;;;;;;5013585;28;20812;-69
2022/08/12 07:21:11;;;;;;;14.07;12.83;;;23.00;84.30;;;;;;5014430;28;20784;-68
2022/08/12 07:23:38;;;;;;;11.07;10.27;;;23.00;83.90;;;;;;5014377;28;20778;-68
2022/08/12 07:26:07;;;;;;;12.27;11.27;;;23.00;83.80;;;;;;5014375;28;20404;-68
2022/08/12 07:28:38;;;;;;;11.00;10.10;;;23.10;83.60;;;;;;5030386;28;20409;-70
2022/08/12 07:31:08;;;;;;;11.60;10.50;;;23.20;83.50;;;;;;5000930;28;20432;-68
2022/08/12 07:33:39;;;;;;;11.77;10.60;;;23.30;84.80;;;;;;5033525;28;20428;-71
2022/08/12 07:36:09;;;;;;;11.57;10.57;;;23.40;84.70;;;;;;5034301;28;20775;-70
2022/08/12 07:38:42;;;;;;;10.87;9.97;;;23.50;83.70;;;;;;5033916;28;20389;-70
2022/08/12 07:41:10;;;;;;;9.87;9.20;;;23.60;81.70;;;;;;5032629;28;21028;-71
2022/08/12 07:43:42;;;;;;;10.40;9.70;;;23.60;81.00;;;;;;5031746;28;20425;-74
2022/08/12 07:46:13;;;;;;;11.67;10.67;;;23.80;83.00;;;;;;5035318;28;20460;-71
2022/08/12 07:48:49;;;;;;;10.87;9.93;;;23.90;81.50;;;;;;5033701;28;20401;-70
2022/08/12 07:51:16;;;;;;;11.50;10.43;;;24.00;81.70;;;;;;5033121;28;20986;-70
2022/08/12 07:53:42;;;;;;;11.20;10.20;;;24.10;81.00;;;;;;5032911;28;21038;-71
2022/08/12 07:56:09;;;;;;;10.90;9.90;;;24.30;80.80;;;;;;5033525;28;20449;-70
2022/08/12 07:58:38;;;;;;;10.70;9.83;;;24.50;81.60;;;;;;5033412;28;20244;-72
2022/08/12 08:01:08;;;;;;;15.83;11.60;;;24.60;81.10;;;;;;5031583;28;20514;-71
2022/08/12 08:03:33;;;;;;;9.63;8.80;;;24.70;81.80;;;;;;5033786;28;20425;-71
2022/08/12 08:05:59;;;;;;;9.93;9.23;;;24.90;82.00;;;;;;5037581;28;20552;-70
2022/08/12 08:08:26;;;;;;;9.43;8.73;;;25.00;81.50;;;;;;5033382;28;20200;-70
2022/08/12 08:13:44;;;;;;;9.83;9.13;;;25.30;77.70;;;;;;5047310;28;20424;-71
2022/08/12 08:16:14;;;;;;;10.37;9.10;;;25.60;78.20;;;;;;5049987;28;20428;-70
2022/08/12 08:18:43;;;;;;;8.97;8.10;;;25.70;76.50;;;;;;5052479;28;20424;-71
2022/08/12 08:21:11;;;;;;;10.43;9.93;;;25.90;72.60;;;;;;5052617;28;20541;-70
2022/08/12 08:26:23;;;;;;;7.60;6.87;;;26.20;69.90;;;;;;5034364;28;20413;-70
2022/08/12 08:28:49;;;;;;;8.00;6.73;;;26.40;66.70;;;;;;5032331;28;20412;-70
2022/08/12 08:31:15;;;;;;;7.00;6.13;;;26.70;67.80;;;;;;5034244;28;20414;-70
2022/08/12 08:33:40;;;;;;;6.80;4.80;;;26.80;66.10;;;;;;5040015;28;20260;-70
2022/08/12 08:36:09;;;;;;;5.00;4.60;;;26.90;56.40;;;;;;5052219;28;20185;-69
2022/08/12 08:38:35;;;;;;;5.83;5.20;;;27.00;56.60;;;;;;5041914;28;20264;-70
2022/08/12 08:43:46;;;;;;;6.10;5.30;;;27.10;54.50;;;;;;5031282;28;20166;-67
2022/08/12 08:46:13;;;;;;;6.00;5.17;;;27.20;52.90;;;;;;5032834;28;20554;-66
2022/08/12 08:48:39;;;;;;;4.83;4.53;;;27.30;52.70;;;;;;5032739;28;20162;-67
2022/08/12 08:51:05;;;;;;;5.90;5.60;;;27.60;53.60;;;;;;5029003;28;20471;-68
2022/08/12 08:53:31;;;;;;;5.73;5.23;;;27.80;53.50;;;;;;5032541;28;20448;-67
2022/08/12 08:55:58;;;;;;;5.63;5.13;;;28.00;52.50;;;;;;5032083;28;20432;-67
2022/08/12 08:58:24;;;;;;;6.10;5.70;;;28.10;50.80;;;;;;5032649;28;20262;-67
2022/08/12 09:00:55;;;;;;;4.63;4.33;;;28.20;51.40;;;;;;5031994;28;20755;-67
2022/08/12 09:03:20;;;;;;;4.10;3.90;;;28.40;49.70;;;;;;5033000;28;20422;-67
2022/08/12 09:05:46;;;;;;;6.67;6.37;;;28.40;48.50;;;;;;5048419;28;20945;-67
2022/08/12 09:08:12;;;;;;;5.77;5.30;;;28.40;49.70;;;;;;5046204;28;20190;-68
2022/08/12 09:10:37;;;;;;;5.00;4.70;;;28.60;49.50;;;;;;5025964;28;20191;-67
2022/08/12 09:15:48;;;;;;;7.77;7.27;;;29.00;49.30;;;;;;5029631;28;20188;-67
2022/08/12 09:18:16;;;;;;;5.20;4.77;;;29.10;46.80;;;;;;5031196;28;20417;-66
2022/08/12 09:20:42;;;;;;;5.97;5.53;;;29.20;48.40;;;;;;5028661;28;20960;-66
2022/08/12 09:23:11;;;;;;;7.07;6.60;;;29.40;48.10;;;;;;5028772;28;20822;-66
2022/08/12 09:25:40;;;;;;;5.43;5.10;;;29.60;48.00;;;;;;5028539;28;20421;-66
2022/08/12 09:28:10;;;;;;;5.67;5.10;;;29.80;47.50;;;;;;5030506;28;20864;-66
2022/08/12 09:30:43;;;;;;;8.03;7.63;;;29.90;47.00;;;;;;5026832;28;20441;-66
2022/08/12 09:33:08;;;;;;;5.60;5.20;;;30.00;46.00;;;;;;5029843;28;20421;-66
2022/08/12 09:35:35;;;;;;;5.77;5.37;;;30.10;45.20;;;;;;5033026;28;20416;-66
2022/08/12 09:38:01;;;;;;;5.40;5.00;;;30.20;44.90;;;;;;5035195;28;20205;-66
2022/08/12 09:40:29;;;;;;;4.60;4.30;;;30.30;46.00;;;;;;5036121;28;20492;-66
2022/08/12 09:45:47;;;;;;;5.80;5.40;;;30.60;44.30;;;;;;5035645;28;20920;-66
2022/08/12 09:48:18;;;;;;;6.87;6.37;;;30.70;45.70;;;;;;5035918;28;20421;-66
2022/08/12 09:50:48;;;;;;;4.93;4.63;;;30.80;45.00;;;;;;5035695;28;20526;-66
2022/08/12 09:53:17;;;;;;;5.30;4.97;;;31.00;45.80;;;;;;5035780;28;20412;-66
2022/08/12 09:55:46;;;;;;;5.43;5.20;;;31.20;46.40;;;;;;5035688;28;20432;-66
2022/08/12 09:58:15;;;;;;;5.13;4.77;;;31.30;45.30;;;;;;5033219;28;20444;-66
2022/08/12 10:00:46;;;;;;;6.40;5.10;;;31.50;44.50;;;;;;5035300;28;20939;-66
2022/08/12 10:03:15;;;;;;;6.13;5.63;;;31.40;42.80;;;;;;5035039;28;20452;-66
2022/08/12 10:05:45;;;;;;;6.00;5.50;;;31.40;43.60;;;;;;5035510;28;20451;-67
2022/08/12 10:08:13;;;;;;;5.27;5.03;;;31.50;42.30;;;;;;5034958;28;20425;-66
2022/08/12 10:13:41;;;;;;;5.03;4.67;;;31.40;42.30;;;;;;5035497;28;20389;-66
2022/08/12 10:16:19;;;;;;;6.67;6.37;;;31.60;42.70;;;;;;5034807;28;20412;-66
2022/08/12 10:18:56;;;;;;;6.10;5.80;;;31.80;43.00;;;;;;5035448;28;20417;-66
2022/08/12 10:21:35;;;;;;;5.07;4.77;;;31.90;42.60;;;;;;5032570;28;20475;-66
2022/08/12 10:24:03;;;;;;;7.80;7.40;;;32.00;40.60;;;;;;5032947;28;20936;-66
2022/08/12 10:32:03;;;;;;;4.70;4.40;;;32.20;43.50;;;;;;5034493;28;20397;-66
2022/08/12 10:34:29;;;;;;;6.23;5.83;;;32.40;41.50;;;;;;5034987;28;20405;-66
2022/08/12 10:36:58;;;;;;;7.03;4.83;;;32.40;40.20;;;;;;5034103;28;20935;-66
2022/08/12 10:39:36;;;;;;;6.30;5.90;;;32.50;41.50;;;;;;5035007;28;20419;-66
2022/08/12 10:45:04;;;;;;;5.60;5.30;;;32.80;41.40;;;;;;5033784;28;20862;-67
2022/08/12 10:47:32;;;;;;;6.47;6.10;;;32.80;39.20;;;;;;5033865;28;20409;-66
2022/08/12 10:49:58;;;;;;;4.87;4.60;;;33.00;38.90;;;;;;5033753;28;20508;-67
2022/08/12 10:52:25;;;;;;;7.10;6.70;;;32.90;39.40;;;;;;5034704;28;20460;-66
2022/08/12 10:54:51;;;;;;;5.27;4.97;;;33.00;37.20;;;;;;5034301;28;20931;-66
2022/08/12 10:57:18;;;;;;;8.47;7.97;;;32.80;36.90;;;;;;5033475;28;20417;-66
2022/08/12 10:59:44;;;;;;;5.47;5.07;;;32.90;38.60;;;;;;5034553;28;20421;-66
2022/08/12 11:02:13;;;;;;;4.90;4.60;;;33.00;39.60;;;;;;5033796;28;20607;-67
2022/08/12 11:04:40;;;;;;;5.37;5.07;;;33.20;39.50;;;;;;5034313;28;20897;-66
2022/08/12 11:07:07;;;;;;;6.13;5.83;;;33.20;40.60;;;;;;5033811;28;20409;-66
2022/08/12 11:09:37;;;;;;;4.93;4.50;;;33.30;39.10;;;;;;5033983;28;20405;-67
2022/08/12 11:12:05;;;;;;;6.27;5.87;;;33.40;39.10;;;;;;5031918;28;20867;-66
2022/08/12 11:14:37;;;;;;;4.83;4.57;;;33.40;39.20;;;;;;5034232;28;20420;-66
2022/08/12 11:17:11;;;;;;;6.60;6.23;;;33.40;38.60;;;;;;5015102;28;20890;-66
2022/08/12 11:19:38;;;;;;;5.70;5.40;;;33.50;39.20;;;;;;5034024;28;20913;-66
2022/08/12 11:22:05;;;;;;;4.90;4.60;;;33.60;38.50;;;;;;5033413;28;20503;-66
2022/08/12 11:24:31;;;;;;;5.07;4.77;;;33.50;36.70;;;;;;5034425;28;20440;-66
2022/08/12 11:26:58;;;;;;;5.13;4.93;;;33.50;36.00;;;;;;5033124;28;20417;-66
2022/08/12 11:29:26;;;;;;;5.50;5.10;;;33.50;37.50;;;;;;5034072;28;20171;-66
2022/08/12 11:31:53;;;;;;;4.90;4.47;;;33.60;37.90;;;;;;5033758;28;20409;-66
2022/08/12 11:34:19;;;;;;;4.23;3.93;;;33.60;38.10;;;;;;5033864;28;20421;-66
2022/08/12 11:36:50;;;;;;;5.27;4.87;;;33.60;37.20;;;;;;5033807;28;20413;-66
2022/08/12 11:39:16;;;;;;;8.30;7.60;;;33.50;37.40;;;;;;5033181;28;20451;-66
2022/08/12 11:41:42;;;;;;;5.20;4.80;;;33.60;38.00;;;;;;5032110;28;20480;-66
2022/08/12 11:44:07;;;;;;;4.60;4.30;;;33.60;38.50;;;;;;5031791;28;20508;-66
2022/08/12 11:46:37;;;;;;;5.43;5.03;;;33.60;37.60;;;;;;5033623;28;20267;-66
2022/08/12 11:49:03;;;;;;;5.10;4.80;;;33.50;36.90;;;;;;5030672;28;20225;-66
2022/08/12 11:51:29;;;;;;;5.47;4.97;;;33.50;37.30;;;;;;5033336;28;20457;-66
2022/08/12 11:53:55;;;;;;;5.00;4.60;;;33.60;36.80;;;;;;5032945;28;20426;-68
2022/08/12 11:56:21;;;;;;;5.30;5.10;;;33.60;36.70;;;;;;5033600;28;20480;-66
2022/08/12 11:58:47;;;;;;;4.70;4.50;;;33.70;38.40;;;;;;5032692;28;20186;-66
2022/08/12 12:01:13;;;;;;;4.10;3.90;;;33.70;35.40;;;;;;5032744;28;20202;-66
2022/08/12 12:03:39;;;;;;;5.30;4.90;;;33.30;36.20;;;;;;5033352;28;20409;-66
2022/08/12 12:06:05;;;;;;;5.43;5.23;;;33.40;37.50;;;;;;5032731;28;20205;-66
2022/08/12 12:08:31;;;;;;;6.10;5.80;;;33.50;36.70;;;;;;5033000;28;20417;-66
2022/08/12 12:11:00;;;;;;;6.57;6.07;;;33.60;36.90;;;;;;5032899;28;20182;-67
2022/08/12 12:13:26;;;;;;;6.50;6.00;;;33.70;38.20;;;;;;5033129;28;20466;-66
2022/08/12 12:15:51;;;;;;;5.53;5.23;;;33.70;38.60;;;;;;5032900;28;20896;-66
2022/08/12 12:18:23;;;;;;;5.70;5.40;;;33.70;38.20;;;;;;5031304;28;20601;-66
2022/08/12 12:20:50;;;;;;;4.37;4.17;;;33.50;36.30;;;;;;5033086;28;20554;-66
2022/08/12 12:23:16;;;;;;;4.80;4.40;;;33.40;35.90;;;;;;5032411;28;20416;-66
2022/08/12 12:25:41;;;;;;;4.60;4.27;;;33.40;36.60;;;;;;5031715;28;20433;-66
2022/08/12 12:28:07;;;;;;;4.20;3.90;;;33.30;38.20;;;;;;5032345;28;20174;-67
2022/08/12 12:30:34;;;;;;;4.77;4.50;;;33.40;37.70;;;;;;5031720;28;20649;-66
2022/08/12 12:32:59;;;;;;;5.53;5.07;;;33.40;37.80;;;;;;5032268;28;20253;-66
2022/08/12 12:35:25;;;;;;;4.90;4.60;;;33.40;37.10;;;;;;5032577;28;20551;-66
2022/08/12 12:37:56;;;;;;;5.20;4.80;;;33.40;37.60;;;;;;5032921;28;20183;-66
2022/08/12 12:40:25;;;;;;;4.70;4.40;;;33.30;37.90;;;;;;5032093;28;20163;-66
2022/08/12 12:42:51;;;;;;;5.17;4.97;;;33.30;37.70;;;;;;5033030;28;20822;-66
2022/08/12 12:45:18;;;;;;;12.40;11.50;;;33.20;38.40;;;;;;5032126;28;20501;-69
2022/08/12 12:48:03;;;;;;;5.03;4.73;;;33.10;37.10;;;;;;5030609;28;20490;-67
2022/08/12 12:50:37;;;;;;;4.33;4.13;;;33.00;36.20;;;;;;5032544;28;20497;-66
2022/08/12 12:53:04;;;;;;;4.87;4.60;;;32.80;36.60;;;;;;5031726;28;20460;-67
2022/08/12 12:55:34;;;;;;;4.50;4.30;;;32.80;37.50;;;;;;5032301;28;20941;-66
2022/08/12 12:58:03;;;;;;;4.30;4.10;;;32.80;38.20;;;;;;5032019;28;20760;-67
2022/08/12 13:00:32;;;;;;;5.33;5.03;;;32.90;38.30;;;;;;5030779;28;20429;-66
2022/08/12 13:02:58;;;;;;;5.10;4.87;;;32.80;37.30;;;;;;5032538;28;20414;-66
2022/08/12 13:05:27;;;;;;;4.87;4.57;;;32.90;38.00;;;;;;5032730;28;20417;-66
2022/08/12 13:07:54;;;;;;;4.90;4.63;;;32.90;37.70;;;;;;5032502;28;20870;-66
2022/08/12 13:10:22;;;;;;;4.30;4.10;;;32.80;37.10;;;;;;5033153;28;20500;-66
2022/08/12 13:12:48;;;;;;;4.67;4.40;;;32.80;36.40;;;;;;5036533;28;20413;-66
2022/08/12 13:15:15;;;;;;;5.47;5.13;;;32.50;34.80;;;;;;5035867;28;20409;-66
2022/08/12 13:17:48;;;;;;;5.93;5.50;;;32.30;35.60;;;;;;5036490;28;20759;-66
2022/08/12 13:20:18;;;;;;;5.70;5.30;;;32.30;38.30;;;;;;5035811;28;20495;-66
2022/08/12 13:22:48;;;;;;;5.27;4.97;;;32.30;38.30;;;;;;5035062;28;20468;-66
2022/08/12 13:25:16;;;;;;;5.27;4.87;;;32.30;38.20;;;;;;5035720;28;20428;-66
2022/08/12 13:27:46;;;;;;;5.50;5.20;;;32.30;38.70;;;;;;5036257;28;20505;-66
2022/08/12 13:30:24;;;;;;;5.67;5.20;;;32.30;38.60;;;;;;5033032;28;20432;-68
2022/08/12 13:32:57;;;;;;;8.03;5.87;;;32.40;38.60;;;;;;5020687;28;20785;-66
2022/08/12 13:35:34;;;;;;;6.43;5.93;;;32.30;38.00;;;;;;5035205;28;20417;-66
2022/08/12 13:38:00;;;;;;;4.47;4.07;;;32.30;38.30;;;;;;5036150;28;20408;-66
2022/08/12 13:40:31;;;;;;;4.70;4.40;;;32.30;38.60;;;;;;5035982;28;20443;-66
2022/08/12 13:42:58;;;;;;;5.77;5.37;;;32.20;37.40;;;;;;5034409;28;20432;-66
2022/08/12 13:45:25;;;;;;;7.00;6.17;;;32.20;37.40;;;;;;5033900;28;20417;-66
2022/08/12 13:47:59;;;;;;;5.43;5.23;;;32.20;38.50;;;;;;5036219;28;20546;-66
2022/08/12 13:50:47;;;;;;;5.10;4.80;;;32.20;38.50;;;;;;5030519;28;20523;-66
2022/08/12 13:53:15;;;;;;;7.87;7.17;;;32.30;38.90;;;;;;5032757;28;20425;-66
2022/08/12 13:55:44;;;;;;;8.10;7.60;;;32.30;39.10;;;;;;5016868;28;20512;-66
2022/08/12 13:58:20;;;;;;;7.50;5.27;;;32.30;39.50;;;;;;5016257;28;20421;-66
2022/08/12 14:00:50;;;;;;;5.27;4.97;;;32.30;38.50;;;;;;5033218;28;20460;-66
2022/08/12 14:03:20;;;;;;;8.30;5.40;;;32.10;36.80;;;;;;5032630;28;20420;-66
2022/08/12 14:05:46;;;;;;;5.30;4.90;;;32.10;37.50;;;;;;5033177;28;20467;-66
2022/08/12 14:08:15;;;;;;;5.43;4.90;;;32.10;38.10;;;;;;5032481;28;20508;-66
2022/08/12 14:10:54;;;;;;;7.43;6.93;;;32.10;38.40;;;;;;5031262;28;20421;-66
2022/08/12 14:13:25;;;;;;;8.07;7.40;;;32.20;39.20;;;;;;5032507;28;20418;-66
2022/08/12 14:15:54;;;;;;;6.27;5.97;;;32.30;39.50;;;;;;5033150;28;20465;-66
2022/08/12 14:18:25;;;;;;;7.80;7.30;;;32.30;38.50;;;;;;5032420;28;20421;-66
2022/08/12 14:20:57;;;;;;;7.27;6.77;;;32.40;38.50;;;;;;5032364;28;20468;-66
2022/08/12 14:23:24;;;;;;;8.77;6.63;;;32.30;36.80;;;;;;5016031;28;20426;-66
2022/08/12 14:25:50;;;;;;;5.37;5.07;;;32.20;36.00;;;;;;5035273;28;20417;-66
2022/08/12 14:28:19;;;;;;;5.33;5.03;;;32.20;36.60;;;;;;5034470;28;20413;-66
2022/08/12 14:30:59;;;;;;;4.93;4.53;;;32.20;36.80;;;;;;5035511;28;20899;-66
2022/08/12 14:33:28;;;;;;;5.13;4.73;;;32.20;37.30;;;;;;5034549;28;20409;-66
2022/08/12 14:35:54;;;;;;;6.60;6.20;;;32.20;36.20;;;;;;5035135;28;20409;-66
2022/08/12 14:38:23;;;;;;;4.63;4.43;;;32.10;37.40;;;;;;5034319;28;20498;-66